Tiempo atmosférico en la estación meteorológica de Brozas , Cáceres (411 m.)



Fecha
DESCASC
Temp. máxima en grados centígrados (hora)
DESCASC
Temp. mínima en grados centígrados (hora)
DESCASC
Temp. media en grados centígrados
DESCASC
Racha de viento máxima en m/sg (hora)
DESCASC
Velocidad máxima media en intervalos de 10 minutos(hora)
DESCASC
Precipitaciones diarias en mm
DESCASC
Precipitaciones de 00:00 a 06:00 en mm
DESCASC
Precipitaciones de 06:00 a 12:00 en mm
DESCASC
Precipitaciones de 12:00 a 18:00 en mm
DESCASC
Precipitaciones de 18:00 a 24:00 en mm
DESCASC
23-05-2018 26.3 (17:50) 15.1 (07:00) 20.7 6.11 (19:30) 3.89 (19:30) 0 0 0 0 0
22-05-2018 24.9 (18:30) 12.1 (07:10) 18.5 7.5 (15:10) 4.44 (14:40) 0 0 0 0 0
21-05-2018 23.7 (16:50) 10.6 (06:20) 17.2 7.22 (17:00) 5 (18:40) 0 0 0 0 0
20-05-2018 22.9 (14:40) 12.8 (00:00) 17.8 13.89 (16:00) 9.17 (16:00) 1.8 0 0 1.8 0
19-05-2018 25.4 (18:00) 10.2 (00:00) 17.8 11.67 (18:40) 8.33 (18:40) 0 0 0 0 0
18-05-2018 22.4 (13:50) 11.7 (00:00) 17 19.17 (15:10) 13.06 (15:10) 14.2 0.2 0 14 0
17-05-2018 28.6 (17:40) 14.4 (00:00) 21.5 16.67 (22:20) 10 (22:20) 3 0 0 0 3
16-05-2018 26.8 (17:00) 13 (00:00) 19.9 14.44 (09:40) 9.72 (09:40) 0 0 0 0 0
15-05-2018 24.9 (18:20) 9.7 (00:00) 17.3 8.61 (16:10) 5.83 (09:50) 0 0 0 0 0
14-05-2018 22.4 (17:40) 6.7 (00:00) 14.5 12.22 (17:00) 8.06 (10:50) 0 0 0 0 0
13-05-2018 18.7 (18:50) 3.3 (00:00) 11 13.06 (16:40) 6.94 (09:00) 0 0 0 0 0
12-05-2018 17.6 (15:50) 6.8 (00:00) 12.2 13.33 (12:50) 9.44 (12:00) 0 0 0 0 0
11-05-2018 24.3 (17:10) 12 (07:10) 18.1 8.89 (20:10) 6.94 (20:10) 0 0 0 0 0
10-05-2018 24.8 (17:30) 8.9 (00:00) 16.8 5.83 (11:10) 3.89 (02:10) 0 0 0 0 0
09-05-2018 24.7 (16:10) 11.4 (00:00) 18.1 10.56 (20:20) 7.5 (20:20) 0 0 0 0 0
08-05-2018 25.8 (16:10) 13.7 (00:00) 19.7 8.33 (18:30) 6.11 (18:30) 0 0 0 0 0
07-05-2018 26.5 (16:00) 13.1 (00:00) 19.8 9.17 (17:30) 6.11 (17:40) 0 0 0 0 0
06-05-2018 25.5 (17:00) 11.9 (00:00) 18.7 8.89 (11:50) 6.11 (08:20) 1 0 0 1 0
05-05-2018 24.4 (19:00) 8.5 (00:00) 16.4 7.22 (02:50) 5.56 (02:40) 0 0 0 0 0
04-05-2018 20.1 (18:20) 6.9 (00:00) 13.5 13.33 (09:20) 9.72 (09:30) 0 0 0 0 0
03-05-2018 20 (18:50) 7.3 (00:00) 13.7 11.39 (17:00) 7.5 (22:40) 0 0 0 0 0
02-05-2018 16.5 (17:20) 4.4 (00:00) 10.5 7.5 (18:00) 5.83 (01:10) 0 0 0 0 0
01-05-2018 17.2 (18:50) 6 (08:00) 11.6 8.89 (15:50) 6.67 (15:50) 0.2 0 0.2 0 0
30-04-2018 15.3 (17:00) 4.3 (00:00) 9.8 9.72 (19:00) 7.22 (18:50) 0.4 0 0.4 0 0
29-04-2018 12.1 (16:20) 5.2 (00:00) 8.7 18.89 (14:30) 12.22 (14:30) 3.4 1.2 0 2 0.2
28-04-2018 15.8 (16:30) 4.5 (00:00) 10.2 9.44 (15:00) 6.11 (18:30) 1.6 0 0 0 1.6

Gráficas

Temp. máximas Temp. mínimas Temp. medias Precipitaciones Rachas de viento máximas Velocidades máximas media en intervalos de 10 minutos

Datos horarios

Fecha y hora oficial Temperatura (ºC) Velocidad del viento (km/h) Dirección del viento Racha (km/h) Dirección de racha Precipitación (mm) Presión (hPa) Tendencia (hPa) Humedad (%)
2018-05-27 23:00:00 15.8 21 Oeste 28 Oeste 0 -- -- 79
2018-05-27 22:00:00 17.5 16 Oeste 25 Oeste 0 -- -- 72
2018-05-27 21:00:00 19.8 15 Noroeste 31 Noroeste 0 -- -- 62
2018-05-27 20:00:00 20.8 22 Noroeste 42 Oeste 0 -- -- 59
2018-05-27 19:00:00 22.2 27 Oeste 36 Noroeste 0 -- -- 54
2018-05-27 18:00:00 23.6 19 Oeste 34 Oeste 0 -- -- 48
2018-05-27 17:00:00 23.7 19 Oeste 31 Oeste 0 -- -- 48
2018-05-27 16:00:00 23 13 Noroeste 27 Oeste 0 -- -- 51
2018-05-27 15:00:00 22.8 14 Noroeste 23 Noroeste 0 -- -- 56
2018-05-27 14:00:00 22 13 Noroeste 21 Oeste 0 -- -- 56
2018-05-27 13:00:00 20.5 12 Noroeste 18 Oeste 0 -- -- 62
2018-05-27 12:00:00 19.3 12 Noroeste 18 Noroeste 0 -- -- 71
2018-05-27 11:00:00 16.9 5 Oeste 10 Noroeste 0 -- -- 80
2018-05-27 10:00:00 15.9 6 Norte 12 Norte 0 -- -- 89
2018-05-27 09:00:00 14.9 10 Norte 12 Noroeste 0 -- -- 92
2018-05-27 08:00:00 14.2 10 Oeste 16 Oeste 0 -- -- 93
2018-05-27 07:00:00 13.9 9 Norte 12 Nordeste 0 -- -- 90
2018-05-27 06:00:00 13.8 9 Norte 12 Nordeste 0 -- -- 91
2018-05-27 05:00:00 14.5 11 Nordeste 13 Nordeste 0 -- -- 85
2018-05-27 04:00:00 14.6 10 Nordeste 12 Norte 0 -- -- 85
2018-05-27 03:00:00 14.5 8 Norte 10 Nordeste 0 -- -- 86
2018-05-27 02:00:00 14 10 Norte 12 Nordeste 0 -- -- 86
2018-05-27 01:00:00 14.6 9 Norte 10 Norte 0 -- -- 83
2018-05-27 00:00:00 14.9 9 Norte 11 Norte 0 -- -- 80
2018-05-26 23:00:00 15.9 10 Norte 11 Norte 0 -- -- 77
2018-05-26 22:00:00 17 8 Norte 10 Norte 0 -- -- 76
2018-05-26 21:00:00 18.1 9 Norte 13 Norte 0 -- -- 75
2018-05-26 20:00:00 18.5 10 Norte 13 Norte 0 -- -- 73
2018-05-26 19:00:00 19.6 6 Nordeste 14 Nordeste 0 -- -- 63
2018-05-26 18:00:00 19.2 9 Nordeste 13 Nordeste 0 -- -- 67
2018-05-26 17:00:00 19.5 6 Nordeste 16 Sur 0 -- -- 65
2018-05-26 16:00:00 21.1 9 Este 23 Sudeste 0 -- -- 52
2018-05-26 15:00:00 22.1 12 Sur 24 Sur 0 -- -- 51
2018-05-26 14:00:00 21 13 Sur 22 Sur 0 -- -- 59
2018-05-26 13:00:00 18.6 15 Sur 26 Sur 0 -- -- 70
2018-05-26 12:00:00 18.3 13 Sur 20 Sur 0 -- -- 73
2018-05-26 11:00:00 17.8 6 Sur 13 Sudeste 0 -- -- 75
2018-05-26 10:00:00 15.6 5 Sur 12 Sur 0 -- -- 84
2018-05-26 09:00:00 14 7 Sudeste 14 Sudeste 0 -- -- 90
2018-05-26 08:00:00 12.3 8 Sudeste 13 Sudeste 0 -- -- 88
2018-05-26 07:00:00 11.7 6 Este 9 Este 0 -- -- 91
2018-05-26 06:00:00 11.7 8 Este 13 Este 0 -- -- 92
2018-05-26 05:00:00 12.7 5 Sudeste 10 Sudeste 0 -- -- 89
2018-05-26 04:00:00 12.6 6 Sudeste 9 Sudeste 0 -- -- 93
2018-05-26 03:00:00 12.6 6 Sudeste 9 Sur 0 -- -- 92
2018-05-26 02:00:00 13.4 6 Este 7 Este 0 -- -- 89
2018-05-26 01:00:00 13.7 4 Norte 8 Oeste 0 -- -- 86
2018-05-26 00:00:00 14.9 4 Oeste 8 Sudoeste 0 -- -- 81
2018-05-25 23:00:00 14.9 3 Nordeste 7 Norte 0 -- -- 79
2018-05-25 22:00:00 15.5 7 Norte 14 Norte 0 -- -- 77
2018-05-25 21:00:00 16.4 5 Sudeste 15 Sudeste 0 -- -- 76
2018-05-25 20:00:00 18.2 11 Sudeste 20 Sudeste 0 -- -- 64
2018-05-25 19:00:00 16.8 7 Sudeste 28 Sudeste 0 -- -- 72
2018-05-25 18:00:00 19.1 10 Sur 18 Oeste 0 -- -- 62
2018-05-25 17:00:00 19.1 5 Oeste 19 Noroeste 0 -- -- 57
2018-05-25 16:00:00 18.5 11 Noroeste 23 Noroeste 0 -- -- 63
2018-05-25 15:00:00 16.9 15 Noroeste 25 Oeste 0 -- -- 73
2018-05-25 14:00:00 15.1 11 Noroeste 20 Noroeste 0 -- -- 83
2018-05-25 13:00:00 14.1 10 Norte 19 Noroeste 0 -- -- 90
2018-05-25 12:00:00 14.2 14 Noroeste 22 Sur 0 -- -- 84
2018-05-25 11:00:00 14.1 10 Sur 17 Sudoeste 0 -- -- 93
2018-05-25 10:00:00 13.3 6 Sur 17 Sudoeste 0 -- -- 98
2018-05-25 09:00:00 12.8 15 Sudoeste 20 Sudoeste 0 -- -- 99
2018-05-25 08:00:00 12.3 12 Sudoeste 19 Sudoeste 0 -- -- 99
2018-05-25 07:00:00 12.8 8 Sudoeste 11 Sudoeste 0 -- -- 98
2018-05-25 06:00:00 13.1 4 Sudeste 6 Sur 0 -- -- 98
2018-05-25 05:00:00 13 3 Este 6 Sur 0 -- -- 98
2018-05-25 04:00:00 12.8 6 Sur 13 Sudeste 0 -- -- 99
2018-05-25 03:00:00 12.9 11 Sudeste 15 Sur 0 -- -- 98
2018-05-25 02:00:00 12.9 7 Sur 14 Sur 0 -- -- 98
2018-05-25 01:00:00 13.3 11 Sudoeste 16 Sur 0 -- -- 96
2018-05-25 00:00:00 13.4 10 Sur 14 Sur 0 -- -- 96
2018-05-24 23:00:00 13.8 10 Sur 22 Sur 0 -- -- 95
2018-05-24 22:00:00 14.7 10 Oeste 12 Oeste 0 -- -- 95
2018-05-24 21:00:00 15.1 6 Sudoeste 19 Sudoeste 1.8 -- -- 93
2018-05-24 20:00:00 16.4 12 Oeste 18 Sudoeste 0 -- -- 83
2018-05-24 19:00:00 16.7 16 Oeste 31 Oeste 0 -- -- 83
2018-05-24 18:00:00 16.5 24 Oeste 36 Oeste 0 -- -- 85
2018-05-24 17:00:00 17.6 21 Oeste 28 Oeste 0 -- -- 88
2018-05-24 16:00:00 18.8 10 Noroeste 18 Oeste 0.2 -- -- 85
2018-05-24 15:00:00 17.9 12 Noroeste 17 Noroeste 0 -- -- 88
2018-05-24 14:00:00 17.1 10 Noroeste 23 Norte 0 -- -- 92
2018-05-24 13:00:00 16.3 17 Norte 22 Norte 0.2 -- -- 95
2018-05-24 12:00:00 16.5 14 Norte 19 Norte 0.2 -- -- 95
2018-05-24 11:00:00 15.9 11 Norte 19 Norte 0.4 -- -- 93
2018-05-24 10:00:00 15.2 2 Sur 39 Sur 2.4 -- -- 94
2018-05-24 09:00:00 16.4 9 Sudeste 19 Sur 0 -- -- 83
2018-05-24 08:00:00 16.4 5 Norte 7 Norte 0 -- -- 80
2018-05-24 07:00:00 17.1 4 Este 9 Este 0 -- -- 73
2018-05-24 06:00:00 17.9 5 Este 11 Este 0 -- -- 67
2018-05-24 05:00:00 17.9 7 Este 12 Este 0 -- -- 70
2018-05-24 04:00:00 17.9 10 Nordeste 14 Nordeste 0 -- -- 70
2018-05-24 03:00:00 18.6 2 Norte 5 Noroeste 0 -- -- 66
2018-05-24 02:00:00 19.2 2 Sudoeste 9 Sur 0 -- -- 63
2018-05-24 01:00:00 18.3 8 Sur 10 Sur 0 -- -- 66
2018-05-24 00:00:00 19.3 7 Sur 11 Sur 0 -- -- 62
2018-05-23 23:00:00 19.5 8 Sur 16 Sur 0 -- -- 63
2018-05-23 22:00:00 21.3 8 Sur 14 Sur 0 -- -- 58
2018-05-23 21:00:00 23.8 7 Sur 11 Sur 0 -- -- 51
2018-05-23 20:00:00 25.2 10 Sudoeste 22 Sur 0 -- -- 40
2018-05-23 19:00:00 25.9 10 Sur 19 Sur 0 -- -- 37
2018-05-23 18:00:00 25.8 10 Sudoeste 17 Sur 0 -- -- 39
2018-05-23 17:00:00 24.8 8 Sudeste 15 Nordeste 0 -- -- 42
2018-05-23 16:00:00 26.1 5 Sudeste 19 Sudeste 0 -- -- 40
2018-05-23 15:00:00 25.7 4 Norte 17 Sudeste 0 -- -- 41
2018-05-23 14:00:00 24.4 4 Este 17 Este 0 -- -- 43
2018-05-23 13:00:00 23.9 6 Este 15 Sudeste 0 -- -- 48
2018-05-23 12:00:00 22.3 5 Este 12 Este 0 -- -- 57
2018-05-23 11:00:00 21.8 8 Este 14 Nordeste 0 -- -- 60
2018-05-23 10:00:00 19 6 Nordeste 9 Nordeste 0 -- -- 71
2018-05-23 09:00:00 16.4 3 Sudeste 6 Sudeste 0 -- -- 79
2018-05-23 08:00:00 15.2 5 Sur 6 Sur 0 -- -- 81
2018-05-23 07:00:00 15.1 5 Sur 6 Sudeste 0 -- -- 80
2018-05-23 06:00:00 15.2 5 Sudeste 6 Sudeste 0 -- -- 80
2018-05-23 05:00:00 16.3 6 Norte 9 Norte 0 -- -- 73
2018-05-23 04:00:00 15.5 8 Norte 10 Noroeste 0 -- -- 79
2018-05-23 03:00:00 15.7 9 Noroeste 12 Noroeste 0 -- -- 78
2018-05-23 02:00:00 15.9 9 Noroeste 14 Oeste 0 -- -- 78
2018-05-23 01:00:00 16.1 13 Oeste 16 Oeste 0 -- -- 77
2018-05-23 00:00:00 16.7 14 Oeste 16 Oeste 0 -- -- 72
2018-05-22 23:00:00 18.4 13 Oeste 15 Oeste 0 -- -- 66
2018-05-22 22:00:00 20.1 11 Oeste 13 Oeste 0 -- -- 64
2018-05-22 21:00:00 22.9 6 Oeste 11 Oeste 0 -- -- 56
2018-05-22 20:00:00 24.2 5 Sudoeste 16 Sur 0 -- -- 49
2018-05-22 19:00:00 24.8 14 Sur 20 Sudoeste 0 -- -- 46
2018-05-22 18:00:00 24.7 9 Sur 23 Sudoeste 0 -- -- 46
2018-05-22 17:00:00 24.6 11 Sudoeste 27 Sur 0 -- -- 47
2018-05-22 16:00:00 24.2 13 Sudoeste 27 Sudoeste 0 -- -- 49
2018-05-22 15:00:00 23.7 14 Sur 25 Sur 0 -- -- 47
2018-05-22 14:00:00 23 14 Sudoeste 24 Sur 0 -- -- 54
2018-05-22 13:00:00 22.5 8 Sur 19 Sur 0 -- -- 54
2018-05-22 12:00:00 20.5 9 Sur 15 Sudeste 0 -- -- 65
2018-05-22 11:00:00 19.8 6 Sudeste 14 Sudeste 0 -- -- 68
2018-05-22 10:00:00 17.4 2 Este 8 Sudoeste 0 -- -- 79
2018-05-22 09:00:00 15.8 2 Sur 6 Sudoeste 0 -- -- 86
2018-05-22 08:00:00 12.7 3 Sudoeste 8 Sudoeste 0 -- -- 93
2018-05-22 07:00:00 12.3 6 Noroeste 11 Noroeste 0 -- -- 93
2018-05-22 06:00:00 12.8 8 Noroeste 10 Noroeste 0 -- -- 91
2018-05-22 05:00:00 13.2 7 Oeste 12 Oeste 0 -- -- 89
2018-05-22 04:00:00 13.4 9 Oeste 11 Oeste 0 -- -- 86
2018-05-22 03:00:00 13.8 8 Sudoeste 16 Sudoeste 0 -- -- 81
2018-05-22 02:00:00 14.8 14 Sudoeste 18 Sudoeste 0 -- -- 75
2018-05-22 01:00:00 15.2 8 Sur 14 Sudoeste 0 -- -- 62
2018-05-22 00:00:00 16.6 13 Sudoeste 14 Sudoeste 0 -- -- 59
2018-05-21 23:00:00 16.6 8 Sudoeste 15 Sudoeste 0 -- -- 53
2018-05-21 22:00:00 17.6 14 Sudoeste 15 Sudoeste 0 -- -- 49
2018-05-21 21:00:00 20.1 10 Sudoeste 20 Oeste 0 -- -- 51
2018-05-21 20:00:00 21.6 14 Oeste 23 Oeste 0 -- -- 54
2018-05-21 19:00:00 22.4 15 Oeste 25 Oeste 0 -- -- 57
2018-05-21 18:00:00 23.1 14 Oeste 25 Oeste 0 -- -- 52
2018-05-21 17:00:00 23.5 16 Sudoeste 26 Oeste 0 -- -- 48
2018-05-21 16:00:00 23 10 Oeste 25 Sur 0 -- -- 50
2018-05-21 15:00:00 22.7 10 Sudoeste 21 Sur 0 -- -- 53
2018-05-21 14:00:00 21.4 9 Sur 20 Sur 0 -- -- 53
2018-05-21 13:00:00 20.6 10 Sudoeste 17 Sur 0 -- -- 61
2018-05-21 12:00:00 19.9 6 Sudeste 14 Sudeste 0 -- -- 64
2018-05-21 11:00:00 18.1 7 Sur 13 Sur 0 -- -- 70
2018-05-21 10:00:00 16.2 3 Sudeste 9 Sur 0 -- -- 80
2018-05-21 09:00:00 14.1 5 Sur 10 Sur 0 -- -- 92
2018-05-21 08:00:00 12.2 4 Sudeste 8 Sur 0 -- -- 98
2018-05-21 07:00:00 11 6 Sur 10 Sur 0 -- -- 96
2018-05-21 06:00:00 12.1 5 Este 7 Nordeste 0 -- -- 88
2018-05-21 05:00:00 12.2 5 Norte 9 Noroeste 0 -- -- 90
2018-05-21 04:00:00 12.9 7 Noroeste 8 Noroeste 0 -- -- 87
2018-05-21 03:00:00 13.2 3 Noroeste 8 Noroeste 0 -- -- 86
2018-05-21 02:00:00 13 5 Oeste 9 Sudoeste 0 -- -- 88
2018-05-21 01:00:00 12.5 7 Sudoeste 10 Sudoeste 0 -- -- 90
2018-05-21 00:00:00 12.8 5 Noroeste 12 Oeste 0 -- -- 88
2018-05-20 23:00:00 13.1 2 Sudeste 11 Norte 0 -- -- 89
2018-05-20 22:00:00 13.2 12 Norte 19 Norte 0 -- -- 88
2018-05-20 21:00:00 15.7 14 Noroeste 23 Noroeste 0 -- -- 79
2018-05-20 20:00:00 17.4 5 Noroeste 15 Sudeste 0 -- -- 75
2018-05-20 19:00:00 16.8 9 Este 23 Sudeste 0 -- -- 76
2018-05-20 18:00:00 15.2 17 Sudeste 31 Sur 0 -- -- 86
2018-05-20 17:00:00 15.6 16 Sudeste 37 Este 1.4 -- -- 89
2018-05-20 16:00:00 16.9 33 Este 50 Este 0.4 -- -- 72
2018-05-20 15:00:00 22.4 5 Sudoeste 18 Norte 0 -- -- 59
2018-05-20 14:00:00 20.8 8 Este 26 Norte 0 -- -- 66
2018-05-20 13:00:00 17.6 10 Nordeste 25 Norte 0 -- -- 78
2018-05-20 12:00:00 19 13 Nordeste 19 Norte 0 -- -- 76
2018-05-20 11:00:00 17.6 9 Este 16 Este 0 -- -- 78
2018-05-20 10:00:00 18.1 10 Sudeste 25 Este 0 -- -- 74
2018-05-20 09:00:00 16.4 15 Este 26 Este 0 -- -- 82
2018-05-20 08:00:00 14.9 3 Este 12 Este 0 -- -- 87
2018-05-20 07:00:00 14.8 7 Sur 21 Oeste 0 -- -- 84
2018-05-20 06:00:00 14.6 12 Noroeste 15 Noroeste 0 -- -- 86
2018-05-20 05:00:00 14.6 15 Noroeste 17 Noroeste 0 -- -- 85
2018-05-20 04:00:00 14.4 13 Noroeste 17 Noroeste 0 -- -- 84
2018-05-20 03:00:00 15.2 8 Oeste 11 Oeste 0 -- -- 81
2018-05-20 02:00:00 15.7 6 Sudoeste 10 Sudoeste 0 -- -- 82
2018-05-20 01:00:00 16.1 6 Sudoeste 15 Oeste 0 -- -- 81
2018-05-20 00:00:00 16.4 9 Sur 23 Sur 0 -- -- 81
2018-05-19 23:00:00 18.3 4 Noroeste 6 Nordeste 0 -- -- 62
2018-05-19 22:00:00 17.9 3 Noroeste 8 Oeste 0 -- -- 73
2018-05-19 21:00:00 18.9 5 Oeste 15 Noroeste 0 -- -- 71
2018-05-19 20:00:00 18.4 9 Sudeste 28 Este 0 -- -- 73
2018-05-19 19:00:00 18.3 21 Este 42 Nordeste 0 -- -- 72
2018-05-19 18:00:00 25.4 10 Noroeste 18 Norte 0 -- -- 42
2018-05-19 17:00:00 24.8 10 Nordeste 15 Nordeste 0 -- -- 46
2018-05-19 16:00:00 24.2 5 Sudeste 14 Noroeste 0 -- -- 44
2018-05-19 15:00:00 23.6 5 Norte 14 Este 0 -- -- 52
2018-05-19 14:00:00 23 5 Sudeste 16 Este 0 -- -- 52
2018-05-19 13:00:00 21.5 6 Sudeste 17 Este 0 -- -- 59
2018-05-19 12:00:00 19.7 7 Nordeste 17 Nordeste 0 -- -- 64
2018-05-19 11:00:00 17.8 7 Este 15 Este 0 -- -- 72
2018-05-19 10:00:00 16 9 Nordeste 13 Nordeste 0 -- -- 85
2018-05-19 09:00:00 13.8 10 Nordeste 15 Este 0 -- -- 88
2018-05-19 08:00:00 11.2 9 Este 17 Nordeste 0 -- -- 96
2018-05-19 07:00:00 10.3 13 Nordeste 14 Nordeste 0 -- -- 95
2018-05-19 06:00:00 11.1 9 Este 14 Este 0 -- -- 91
2018-05-19 05:00:00 11 12 Este 14 Nordeste 0 -- -- 93
2018-05-19 04:00:00 11.6 5 Sudeste 14 Este 0 -- -- 92
2018-05-19 03:00:00 12.4 9 Sudeste 18 Nordeste 0 -- -- 84
2018-05-19 02:00:00 11.8 15 Nordeste 19 Nordeste 0 -- -- 92
2018-05-19 01:00:00 12 16 Nordeste 19 Nordeste 0 -- -- 90
2018-05-19 00:00:00 12.7 11 Este 18 Este 0 -- -- 86
2018-05-18 23:00:00 13 7 Este 11 Nordeste 0 -- -- 91
2018-05-18 22:00:00 13.2 0 Calma 12 Oeste 0 -- -- 93
2018-05-18 21:00:00 13.7 4 Sudeste 17 Sudeste 0 -- -- 87
2018-05-18 20:00:00 13.5 10 Sudeste 26 Este 0 -- -- 89
2018-05-18 19:00:00 13.1 17 Este 28 Este 0 -- -- 88
2018-05-18 18:00:00 12.7 18 Este 23 Este 1.6 -- -- 92
2018-05-18 17:00:00 12 15 Nordeste 31 Nordeste 6.2 -- -- 95
2018-05-18 16:00:00 12.7 15 Nordeste 69 Nordeste 6 -- -- 92
2018-05-18 15:00:00 14.3 42 Nordeste 68 Nordeste 0.2 -- -- 75
2018-05-18 14:00:00 21.7 21 Sur 33 Sur 0 -- -- 56
2018-05-18 13:00:00 21.4 19 Sur 31 Sur 0 -- -- 59
2018-05-18 12:00:00 19 10 Sudeste 23 Sur 0 -- -- 76
2018-05-18 11:00:00 17.3 13 Sur 23 Sur 0 -- -- 80
2018-05-18 10:00:00 15.9 14 Sur 19 Sur 0 -- -- 87
2018-05-18 09:00:00 14.8 6 Sudeste 15 Nordeste 0 -- -- 90
2018-05-18 08:00:00 12.2 11 Nordeste 19 Nordeste 0 -- -- 96
2018-05-18 07:00:00 11.9 13 Este 19 Nordeste 0 -- -- 94
2018-05-18 06:00:00 12.1 15 Nordeste 21 Nordeste 0 -- -- 95
2018-05-18 05:00:00 12.4 14 Este 20 Este 0 -- -- 94
2018-05-18 04:00:00 12.4 6 Este 17 Nordeste 0 -- -- 94
2018-05-18 03:00:00 13.2 14 Nordeste 22 Nordeste 0 -- -- 94
2018-05-18 02:00:00 13.6 18 Nordeste 28 Este 0 -- -- 93
2018-05-18 01:00:00 14.5 19 Nordeste 30 Nordeste 0.2 -- -- 87
2018-05-18 00:00:00 14.8 16 Este 30 Este 3 -- -- 86
2018-05-17 23:00:00 15.9 23 Norte 60 Norte 0 -- -- 77
2018-05-17 22:00:00 20 10 Sudeste 33 Este 0 -- -- 49
2018-05-17 21:00:00 20.6 23 Nordeste 42 Nordeste 0 -- -- 48
2018-05-17 20:00:00 25.5 4 Noroeste 12 Noroeste 0 -- -- 35
2018-05-17 19:00:00 27.7 9 Noroeste 17 Noroeste 0 -- -- 26
2018-05-17 18:00:00 28.3 9 Noroeste 17 Noroeste 0 -- -- 26
2018-05-17 17:00:00 28.3 8 Norte 15 Sudeste 0 -- -- 27
2018-05-17 16:00:00 27.9 5 Sudeste 20 Nordeste 0 -- -- 28
2018-05-17 15:00:00 26.9 8 Nordeste 21 Este 0 -- -- 29
2018-05-17 14:00:00 26.3 12 Este 22 Sudeste 0 -- -- 33
2018-05-17 13:00:00 24.9 9 Este 23 Sudeste 0 -- -- 35
2018-05-17 12:00:00 23.7 12 Este 24 Este 0 -- -- 37
2018-05-17 11:00:00 21.3 11 Sudeste 25 Sudeste 0 -- -- 42
2018-05-17 10:00:00 20 14 Este 25 Este 0 -- -- 46
2018-05-17 09:00:00 18.6 10 Este 27 Este 0 -- -- 51
2018-05-17 08:00:00 15.1 22 Este 28 Este 0 -- -- 63
2018-05-17 07:00:00 15.2 16 Este 18 Este 0 -- -- 60
2018-05-17 06:00:00 15.5 10 Este 22 Este 0 -- -- 60
2018-05-17 05:00:00 15.5 18 Nordeste 24 Nordeste 0 -- -- 62
2018-05-17 04:00:00 16.6 18 Nordeste 24 Nordeste 0 -- -- 59
2018-05-17 03:00:00 16.3 18 Nordeste 26 Nordeste 0 -- -- 62
2018-05-17 02:00:00 17.9 15 Nordeste 17 Nordeste 0 -- -- 57
2018-05-17 01:00:00 19 13 Nordeste 16 Nordeste 0 -- -- 51
2018-05-17 00:00:00 19.5 16 Nordeste 17 Nordeste 0 -- -- 51
2018-05-16 23:00:00 19.5 13 Nordeste 14 Nordeste 0 -- -- 52
2018-05-16 22:00:00 20.4 11 Nordeste 14 Nordeste 0 -- -- 49
2018-05-16 21:00:00 23.2 9 Nordeste 21 Nordeste 0 -- -- 39
2018-05-16 20:00:00 25.4 17 Este 25 Este 0 -- -- 30
2018-05-16 19:00:00 26.5 11 Este 28 Este 0 -- -- 31
2018-05-16 18:00:00 26.5 14 Este 30 Este 0 -- -- 29
2018-05-16 17:00:00 26.8 13 Este 24 Nordeste 0 -- -- 30
2018-05-16 16:00:00 26.5 9 Este 23 Nordeste 0 -- -- 34
2018-05-16 15:00:00 25.4 12 Este 23 Este 0 -- -- 36
2018-05-16 14:00:00 24.9 13 Este 27 Este 0 -- -- 37
2018-05-16 13:00:00 23.7 21 Nordeste 32 Nordeste 0 -- -- 39
2018-05-16 12:00:00 22 25 Nordeste 41 Este 0 -- -- 44
2018-05-16 11:00:00 20.1 31 Nordeste 48 Nordeste 0 -- -- 47
2018-05-16 10:00:00 18.2 32 Este 52 Este 0 -- -- 52
2018-05-16 09:00:00 16.3 26 Este 38 Nordeste 0 -- -- 59
2018-05-16 08:00:00 14 25 Nordeste 33 Nordeste 0 -- -- 66
2018-05-16 07:00:00 13 23 Nordeste 33 Este 0 -- -- 68
2018-05-16 06:00:00 14 22 Nordeste 32 Nordeste 0 -- -- 63
2018-05-16 05:00:00 13.3 20 Nordeste 27 Nordeste 0 -- -- 64
2018-05-16 04:00:00 14.1 17 Nordeste 24 Nordeste 0 -- -- 61
2018-05-16 03:00:00 14.9 20 Nordeste 26 Nordeste 0 -- -- 57
2018-05-16 02:00:00 14.9 17 Nordeste 20 Nordeste 0 -- -- 58
2018-05-16 01:00:00 15.8 18 Nordeste 22 Nordeste 0 -- -- 55
2018-05-16 00:00:00 16.6 15 Nordeste 20 Nordeste 0 -- -- 51
2018-05-15 23:00:00 17.9 11 Nordeste 15 Nordeste 0 -- -- 47
2018-05-15 22:00:00 19.6 9 Norte 11 Nordeste 0 -- -- 41
2018-05-15 21:00:00 21.3 9 Nordeste 19 Nordeste 0 -- -- 41
2018-05-15 20:00:00 23.6 13 Nordeste 25 Nordeste 0 -- -- 31
2018-05-15 19:00:00 24.7 13 Nordeste 28 Nordeste 0 -- -- 27
2018-05-15 18:00:00 24.6 15 Norte 26 Norte 0 -- -- 30
2018-05-15 17:00:00 24.2 21 Norte 31 Norte 0 -- -- 27
2018-05-15 16:00:00 24 16 Norte 30 Norte 0 -- -- 28
2018-05-15 15:00:00 23.1 10 Norte 27 Norte 0 -- -- 32
2018-05-15 14:00:00 21.6 8 Norte 19 Noroeste 0 -- -- 39
2018-05-15 13:00:00 20.2 9 Norte 19 Norte 0 -- -- 39
2018-05-15 12:00:00 20.1 9 Nordeste 19 Nordeste 0 -- -- 38
2018-05-15 11:00:00 18.6 11 Nordeste 24 Nordeste 0 -- -- 43
2018-05-15 10:00:00 16.1 19 Nordeste 28 Nordeste 0 -- -- 50
2018-05-15 09:00:00 13.9 21 Nordeste 27 Nordeste 0 -- -- 56
2018-05-15 08:00:00 11 18 Nordeste 24 Nordeste 0 -- -- 66
2018-05-15 07:00:00 10.1 19 Nordeste 25 Nordeste 0 -- -- 69
2018-05-15 06:00:00 10.5 19 Nordeste 23 Nordeste 0 -- -- 68
2018-05-15 05:00:00 11.1 19 Nordeste 23 Nordeste 0 -- -- 67
2018-05-15 04:00:00 11.3 16 Nordeste 21 Nordeste 0 -- -- 68
2018-05-15 03:00:00 10.5 14 Norte 20 Nordeste 0 -- -- 70
2018-05-15 02:00:00 12.3 17 Nordeste 24 Nordeste 0 -- -- 64
2018-05-15 01:00:00 13.2 15 Norte 20 Norte 0 -- -- 63
2018-05-15 00:00:00 13.8 10 Nordeste 16 Norte 0 -- -- 68
2018-05-14 23:00:00 13.8 12 Norte 15 Norte 0 -- -- 69
2018-05-14 22:00:00 14.9 14 Norte 17 Norte 0 -- -- 65
2018-05-14 21:00:00 18.4 13 Norte 26 Norte 0 -- -- 53
2018-05-14 20:00:00 20.1 21 Norte 31 Norte 0 -- -- 47
2018-05-14 19:00:00 20.2 16 Norte 36 Norte 0 -- -- 49
2018-05-14 18:00:00 21 20 Norte 31 Norte 0 -- -- 47
2018-05-14 17:00:00 22 21 Norte 44 Norte 0 -- -- 44
2018-05-14 16:00:00 20.3 22 Norte 35 Norte 0 -- -- 48
2018-05-14 15:00:00 21.3 23 Norte 35 Norte 0 -- -- 49
2018-05-14 14:00:00 18.9 19 Norte 30 Norte 0 -- -- 55
2018-05-14 13:00:00 19.2 17 Norte 30 Norte 0 -- -- 57
2018-05-14 12:00:00 17 20 Norte 31 Norte 0 -- -- 59
2018-05-14 11:00:00 15.4 21 Norte 40 Norte 0 -- -- 63
2018-05-14 10:00:00 13.8 26 Norte 38 Norte 0 -- -- 68
2018-05-14 09:00:00 11.3 21 Norte 28 Norte 0 -- -- 76
2018-05-14 08:00:00 8.4 10 Norte 23 Norte 0 -- -- 86
2018-05-14 07:00:00 7.8 15 Norte 22 Norte 0 -- -- 86
2018-05-14 06:00:00 6.7 12 Norte 17 Noroeste 0 -- -- 89
2018-05-14 05:00:00 6.9 13 Noroeste 18 Norte 0 -- -- 88
2018-05-14 04:00:00 8 10 Noroeste 18 Norte 0 -- -- 83
2018-05-14 03:00:00 8.2 15 Norte 23 Norte 0 -- -- 83
2018-05-14 02:00:00 9.4 18 Norte 23 Norte 0 -- -- 78
2018-05-14 01:00:00 10.1 20 Norte 31 Norte 0 -- -- 75
2018-05-11 20:00:00 21.1 22 Oeste 31 Oeste 0 -- -- 51
2018-05-11 19:00:00 22.6 20 Sudoeste 31 Sudoeste 0 -- -- 51
2018-05-11 18:00:00 23.5 16 Sudoeste 29 Sudoeste 0 -- -- 51
2018-05-11 17:00:00 23.9 14 Sudoeste 30 Sur 0 -- -- 51
2018-05-11 16:00:00 23.2 15 Sudoeste 26 Sudoeste 0 -- -- 53
2018-05-11 15:00:00 22 7 Sudoeste 21 Oeste 0 -- -- 57
2018-05-11 14:00:00 22.2 12 Sudoeste 21 Sudoeste 0 -- -- 55
2018-05-11 13:00:00 21.1 12 Sudoeste 21 Oeste 0 -- -- 59
2018-05-11 12:00:00 20 9 Sudoeste 19 Oeste 0 -- -- 63
2018-05-11 11:00:00 17.9 12 Sudoeste 18 Sudoeste 0 -- -- 73
2018-05-11 10:00:00 15.9 9 Sudoeste 15 Sur 0 -- -- 85
2018-05-11 09:00:00 13.6 10 Sur 15 Sudoeste 0 -- -- 92
2018-05-11 08:00:00 12.1 10 Sur 12 Sur 0 -- -- 95
2018-05-11 07:00:00 12.1 9 Sur 12 Sur 0 -- -- 94
2018-05-11 06:00:00 12.3 12 Sur 14 Sur 0 -- -- 92
2018-05-11 05:00:00 12.9 10 Sur 13 Sur 0 -- -- 88
2018-05-11 04:00:00 14.9 9 Oeste 13 Oeste 0 -- -- 81
2018-05-11 03:00:00 15.5 12 Oeste 13 Oeste 0 -- -- 79
2018-05-11 02:00:00 16.2 11 Sudoeste 13 Sudoeste 0 -- -- 77
2018-05-11 01:00:00 17.1 8 Sudoeste 9 Sudoeste 0 -- -- 71
2018-05-11 00:00:00 17.9 7 Sudoeste 12 Sudoeste 0 -- -- 68
2018-05-10 23:00:00 18.9 5 Sur 8 Sur 0 -- -- 63
2018-05-10 22:00:00 20.4 2 Norte 5 Noroeste 0 -- -- 57
2018-05-10 21:00:00 22.9 2 Oeste 9 Sudoeste 0 -- -- 54
2018-05-10 20:00:00 23.6 4 Sur 12 Sudoeste 0 -- -- 50
2018-05-10 19:00:00 24.3 7 Sudoeste 15 Sur 0 -- -- 49
2018-05-10 18:00:00 24.5 5 Este 17 Sudeste 0 -- -- 51
2018-05-10 17:00:00 24.5 6 Este 17 Este 0 -- -- 49
2018-05-10 16:00:00 23.6 6 Este 15 Sur 0 -- -- 51
2018-05-10 15:00:00 22.8 6 Sur 17 Nordeste 0 -- -- 57
2018-05-10 14:00:00 21.8 9 Este 16 Este 0 -- -- 58
2018-05-10 13:00:00 20.4 8 Nordeste 18 Este 0 -- -- 60
2018-05-10 12:00:00 19.7 7 Este 21 Este 0 -- -- 62
2018-05-10 11:00:00 17.5 11 Nordeste 19 Norte 0 -- -- 64
2018-05-10 10:00:00 15.6 5 Nordeste 12 Nordeste 0 -- -- 72
2018-05-10 09:00:00 12.1 3 Noroeste 8 Noroeste 0 -- -- 83
2018-05-10 08:00:00 9.6 6 Noroeste 12 Noroeste 0 -- -- 86
2018-05-10 07:00:00 9 10 Noroeste 13 Noroeste 0 -- -- 90
2018-05-10 06:00:00 9.4 10 Noroeste 13 Noroeste 0 -- -- 89
2018-05-10 05:00:00 10 8 Noroeste 12 Noroeste 0 -- -- 89
2018-05-10 04:00:00 11 10 Noroeste 13 Noroeste 0 -- -- 86
2018-05-10 03:00:00 11.4 5 Sudoeste 18 Oeste 0 -- -- 83
2018-05-10 02:00:00 11.7 13 Oeste 18 Oeste 0 -- -- 81
2018-05-10 01:00:00 12.2 12 Oeste 19 Noroeste 0 -- -- 81
2018-05-10 00:00:00 13 11 Oeste 21 Oeste 0 -- -- 80
2018-05-09 23:00:00 13.9 9 Oeste 21 Oeste 0 -- -- 78
2018-05-09 22:00:00 14.7 18 Oeste 29 Oeste 0 -- -- 77
2018-05-09 21:00:00 16.1 23 Oeste 38 Oeste 0 -- -- 76
2018-05-09 20:00:00 18.2 23 Oeste 34 Oeste 0 -- -- 73
2018-05-09 19:00:00 20.9 22 Oeste 32 Oeste 0 -- -- 65
2018-05-09 18:00:00 22.4 24 Oeste 33 Oeste 0 -- -- 61
2018-05-09 17:00:00 23.9 18 Oeste 31 Oeste 0 -- -- 56
2018-05-09 16:00:00 24.6 16 Oeste 32 Oeste 0 -- -- 53
2018-05-09 15:00:00 24 14 Oeste 27 Oeste 0 -- -- 57
2018-05-09 14:00:00 22.9 13 Oeste 22 Oeste 0 -- -- 55
2018-05-09 13:00:00 21.2 12 Oeste 22 Oeste 0 -- -- 60
2018-05-09 12:00:00 19.5 13 Oeste 19 Oeste 0 -- -- 70
2018-05-09 11:00:00 17.8 11 Oeste 15 Oeste 0 -- -- 76
2018-05-09 10:00:00 15.5 9 Noroeste 14 Noroeste 0 -- -- 84
2018-05-09 09:00:00 13.2 10 Noroeste 18 Noroeste 0 -- -- 95
2018-05-09 08:00:00 11.7 12 Noroeste 17 Noroeste 0 -- -- 95
2018-05-09 07:00:00 11.7 12 Oeste 13 Oeste 0 -- -- 95
2018-05-09 06:00:00 11.6 8 Sur 12 Sudoeste 0 -- -- 93
2018-05-09 05:00:00 12.9 9 Noroeste 17 Noroeste 0 -- -- 91
2018-05-09 04:00:00 13.4 13 Noroeste 15 Noroeste 0 -- -- 89
2018-05-09 03:00:00 14.3 8 Sudoeste 13 Noroeste 0 -- -- 85
2018-05-09 02:00:00 15.1 9 Oeste 13 Oeste 0 -- -- 85
2018-05-09 01:00:00 15.9 9 Oeste 22 Oeste 0 -- -- 79
2018-05-09 00:00:00 17.4 17 Oeste 24 Oeste 0 -- -- 79
2018-05-08 23:00:00 17.8 9 Noroeste 17 Noroeste 0 -- -- 84
2018-05-08 22:00:00 18.8 10 Noroeste 15 Oeste 0 -- -- 80
2018-05-08 21:00:00 21.2 10 Oeste 21 Oeste 0 -- -- 73
2018-05-08 20:00:00 22.7 15 Noroeste 26 Oeste 0 -- -- 69
2018-05-08 19:00:00 24 20 Oeste 30 Noroeste 0 -- -- 61
2018-05-08 18:00:00 23.1 15 Oeste 19 Noroeste 0 -- -- 62
2018-05-08 17:00:00 24.5 10 Oeste 22 Oeste 0 -- -- 57
2018-05-08 16:00:00 25.4 11 Oeste 21 Oeste 0 -- -- 53
2018-05-08 15:00:00 24.7 12 Noroeste 21 Oeste 0 -- -- 55
2018-05-08 14:00:00 23.7 7 Noroeste 19 Oeste 0 -- -- 59
2018-05-08 13:00:00 22.2 8 Oeste 16 Oeste 0 -- -- 64
2018-05-08 12:00:00 21.2 9 Noroeste 15 Noroeste 0 -- -- 67
2018-05-08 11:00:00 19.5 6 Oeste 11 Oeste 0 -- -- 74
2018-05-08 10:00:00 16.9 9 Oeste 12 Oeste 0 -- -- 89
2018-05-08 09:00:00 14.7 4 Sudoeste 8 Sudoeste 0 -- -- 96
2018-05-08 08:00:00 14.2 6 Oeste 10 Oeste 0 -- -- 96
2018-05-08 07:00:00 14.1 5 Sur 14 Noroeste 0 -- -- 95
2018-05-08 06:00:00 14.2 11 Noroeste 17 Noroeste 0 -- -- 96
2018-05-08 05:00:00 14.5 13 Norte 17 Norte 0 -- -- 95
2018-05-08 04:00:00 13.7 13 Noroeste 15 Noroeste 0 -- -- 94
2018-05-08 03:00:00 14.3 12 Noroeste 13 Noroeste 0 -- -- 92
2018-05-08 02:00:00 14.3 9 Norte 12 Norte 0 -- -- 90
2018-05-08 01:00:00 15 10 Noroeste 17 Noroeste 0 -- -- 87
2018-05-08 00:00:00 15.5 12 Noroeste 15 Noroeste 0 -- -- 84
2018-05-07 23:00:00 16.6 10 Noroeste 17 Norte 0 -- -- 83
2018-05-07 22:00:00 17.3 14 Norte 17 Norte 0 -- -- 81
2018-05-07 21:00:00 20.2 5 Norte 9 Norte 0 -- -- 72
2018-05-07 20:00:00 21.5 8 Norte 14 Norte 0 -- -- 65
2018-05-07 19:00:00 19.5 15 Nordeste 29 Nordeste 0 -- -- 73
2018-05-07 18:00:00 21.3 18 Norte 33 Norte 0 -- -- 59
2018-05-07 17:00:00 26.4 3 Noroeste 17 Norte 0 -- -- 46
2018-05-07 16:00:00 26.5 6 Norte 18 Sudeste 0 -- -- 44
2018-05-07 15:00:00 25.2 5 Nordeste 21 Sudeste 0 -- -- 45
2018-05-07 14:00:00 24.6 8 Sudeste 19 Sudeste 0 -- -- 50
2018-05-07 13:00:00 23.3 11 Sudeste 20 Sudeste 0 -- -- 55
2018-05-07 12:00:00 22.3 12 Sudeste 22 Sudeste 0 -- -- 57
2018-05-07 11:00:00 20.2 13 Este 22 Este 0 -- -- 66
2018-05-07 10:00:00 17.9 10 Sudeste 23 Este 0 -- -- 71
2018-05-07 09:00:00 16.4 18 Este 26 Nordeste 0 -- -- 76
2018-05-07 08:00:00 14.5 12 Este 21 Este 0 -- -- 83
2018-05-07 07:00:00 14.2 15 Este 21 Este 0 -- -- 84
2018-05-07 06:00:00 13.9 16 Este 21 Nordeste 0 -- -- 83
2018-05-07 05:00:00 13.3 15 Nordeste 17 Nordeste 0 -- -- 85
2018-05-07 04:00:00 15.1 5 Este 19 Nordeste 0 -- -- 76
2018-05-07 03:00:00 14.8 14 Nordeste 18 Nordeste 0 -- -- 79
2018-05-07 02:00:00 15 14 Nordeste 18 Nordeste 0 -- -- 79
2018-05-07 01:00:00 15.7 16 Nordeste 19 Nordeste 0 -- -- 76
2018-05-07 00:00:00 17.2 12 Nordeste 14 Nordeste 0 -- -- 70
2018-05-06 23:00:00 17.8 10 Nordeste 12 Nordeste 0 -- -- 69
2018-05-06 22:00:00 18.4 9 Nordeste 21 Nordeste 0 -- -- 68
2018-05-06 21:00:00 20 11 Nordeste 17 Nordeste 0 -- -- 63
2018-05-06 20:00:00 23.1 9 Este 14 Nordeste 0 -- -- 53
2018-05-06 19:00:00 23.5 2 Este 14 Sur 0 -- -- 53
2018-05-06 18:00:00 21.1 5 Sudeste 28 Nordeste 1 -- -- 70
2018-05-06 17:00:00 25.5 8 Sudeste 17 Este 0 -- -- 43
2018-05-06 16:00:00 24.8 6 Sur 20 Sudeste 0 -- -- 47
2018-05-06 15:00:00 24.5 8 Este 24 Sudeste 0 -- -- 50
2018-05-06 14:00:00 23.6 16 Sudeste 28 Sudeste 0 -- -- 52
2018-05-06 13:00:00 22 17 Sudeste 30 Sudeste 0 -- -- 53
2018-05-06 12:00:00 20.8 18 Sudeste 32 Sudeste 0 -- -- 59
2018-05-06 11:00:00 19.3 17 Sudeste 31 Este 0 -- -- 60
2018-05-06 10:00:00 17.9 15 Este 27 Este 0 -- -- 65
2018-05-06 09:00:00 15.4 15 Este 29 Este 0 -- -- 74
2018-05-06 08:00:00 13 18 Este 29 Este 0 -- -- 81
2018-05-06 07:00:00 12 19 Este 26 Nordeste 0 -- -- 82
2018-05-06 06:00:00 12.9 14 Nordeste 21 Nordeste 0 -- -- 74
2018-05-06 05:00:00 16.1 6 Noroeste 7 Noroeste 0 -- -- 53
2018-05-06 04:00:00 17.4 0 Calma 6 Oeste 0 -- -- 51
2018-05-06 03:00:00 17.4 4 Noroeste 10 Norte 0 -- -- 51
2018-05-06 02:00:00 16.5 10 Norte 14 Norte 0 -- -- 54
2018-05-06 01:00:00 18.4 5 Noroeste 9 Sudoeste 0 -- -- 50
2018-05-06 00:00:00 18.7 7 Sudoeste -- -- 0 -- -- 46
2018-05-05 23:00:00 19.1 2 Sur 3 Sur 0 -- -- 45
2018-05-05 22:00:00 19.6 2 Sudoeste 5 Sudoeste 0 -- -- 44
2018-05-05 21:00:00 21.8 3 Sur 5 Sur 0 -- -- 45
2018-05-05 20:00:00 23.5 0 Calma 6 Sudeste 0 -- -- 41
2018-05-05 19:00:00 24.4 2 Noroeste 14 Oeste 0 -- -- 42
2018-05-05 18:00:00 24.1 6 Noroeste 10 Noroeste 0 -- -- 45
2018-05-05 17:00:00 23.5 4 Oeste 15 Noroeste 0 -- -- 41
2018-05-05 16:00:00 22.9 6 Noroeste 15 Noroeste 0 -- -- 48
2018-05-05 15:00:00 22.3 6 Nordeste 12 Nordeste 0 -- -- 47
2018-05-05 14:00:00 21.2 6 Norte 12 Oeste 0 -- -- 52
2018-05-05 13:00:00 20.8 2 Nordeste 14 Nordeste 0 -- -- 53
2018-05-05 12:00:00 18.9 8 Nordeste 19 Este 0 -- -- 59
2018-05-05 11:00:00 17.3 8 Nordeste 20 Nordeste 0 -- -- 62
2018-05-05 10:00:00 14.4 13 Nordeste 19 Este 0 -- -- 71
2018-05-05 09:00:00 11.8 14 Nordeste 19 Nordeste 0 -- -- 78
2018-05-05 08:00:00 8.9 11 Nordeste 18 Nordeste 0 -- -- 85
2018-05-05 07:00:00 9.1 14 Nordeste 20 Nordeste 0 -- -- 83
2018-05-05 06:00:00 8.5 12 Norte 17 Nordeste 0 -- -- 83
2018-05-05 05:00:00 10.1 11 Norte 23 Nordeste 0 -- -- 77
2018-05-05 04:00:00 10.8 18 Nordeste 23 Nordeste 0 -- -- 74
2018-05-05 03:00:00 11.5 19 Nordeste 26 Nordeste 0 -- -- 71
2018-05-05 02:00:00 11.1 18 Nordeste 22 Norte 0 -- -- 74
2018-05-05 01:00:00 12.2 16 Nordeste 19 Nordeste 0 -- -- 70
2018-05-05 00:00:00 15.5 6 Norte 9 Norte 0 -- -- 52
2018-05-04 23:00:00 15.9 2 Norte 3 Noroeste 0 -- -- 50
2018-05-04 22:00:00 16.1 2 Noroeste 6 Este 0 -- -- 53
2018-05-04 21:00:00 17.3 6 Este 15 Este 0 -- -- 50
2018-05-04 20:00:00 18.7 9 Nordeste 20 Nordeste 0 -- -- 47
2018-05-04 19:00:00 19.5 12 Nordeste 17 Nordeste 0 -- -- 46
2018-05-04 18:00:00 19.9 9 Nordeste 18 Nordeste 0 -- -- 40
2018-05-04 17:00:00 19.5 13 Nordeste 24 Nordeste 0 -- -- 47
2018-05-04 16:00:00 18.6 13 Nordeste 31 Nordeste 0 -- -- 44
2018-05-04 15:00:00 17.6 15 Norte 29 Nordeste 0 -- -- 47
2018-05-04 14:00:00 16.6 19 Nordeste 36 Nordeste 0 -- -- 53
2018-05-04 13:00:00 15.9 21 Nordeste 38 Nordeste 0 -- -- 51
2018-05-04 12:00:00 13.6 30 Nordeste 43 Nordeste 0 -- -- 56
2018-05-04 11:00:00 11.9 32 Nordeste 44 Nordeste 0 -- -- 59
2018-05-04 10:00:00 10.1 31 Nordeste 48 Nordeste 0 -- -- 65
2018-05-04 09:00:00 8.3 33 Nordeste 46 Nordeste 0 -- -- 68
2018-05-04 08:00:00 7.1 27 Nordeste 42 Nordeste 0 -- -- 70
2018-05-04 07:00:00 7.1 29 Nordeste 42 Nordeste 0 -- -- 68
2018-05-04 06:00:00 7.9 28 Nordeste 38 Nordeste 0 -- -- 63
2018-05-04 05:00:00 8.6 23 Nordeste 32 Nordeste 0 -- -- 63
2018-05-04 04:00:00 9.5 23 Nordeste 33 Nordeste 0 -- -- 64
2018-05-04 03:00:00 9.3 16 Nordeste 24 Nordeste 0 -- -- 67
2018-05-04 02:00:00 10.6 18 Nordeste 30 Norte 0 -- -- 61
2018-05-04 01:00:00 12.1 26 Norte 38 Nordeste 0 -- -- 56
2018-05-04 00:00:00 12.8 25 Nordeste 36 Nordeste 0 -- -- 54
2018-05-03 23:00:00 12.9 19 Nordeste 36 Nordeste 0 -- -- 57
2018-05-03 22:00:00 13.3 12 Nordeste 27 Nordeste 0 -- -- 59
2018-05-03 21:00:00 15.6 19 Nordeste 39 Norte 0 -- -- 55
2018-05-03 20:00:00 19.6 21 Norte 31 Norte 0 -- -- 48
2018-05-03 19:00:00 19.2 18 Norte 30 Norte 0 -- -- 50
2018-05-03 18:00:00 19.9 18 Norte 30 Norte 0 -- -- 49
2018-05-03 17:00:00 19.8 19 Norte 41 Norte 0 -- -- 54
2018-05-03 16:00:00 18.4 21 Norte 30 Norte 0 -- -- 56
2018-05-03 15:00:00 18.9 19 Norte 27 Norte 0 -- -- 57
2018-05-03 14:00:00 19.1 18 Norte 26 Norte 0 -- -- 58
2018-05-03 13:00:00 18.1 14 Norte 33 Nordeste 0 -- -- 62
2018-05-03 12:00:00 17.2 17 Norte 28 Norte 0 -- -- 64
2018-05-03 11:00:00 15.7 20 Norte 28 Norte 0 -- -- 70
2018-05-03 10:00:00 14 16 Norte 30 Norte 0 -- -- 76
2018-05-03 09:00:00 11.6 23 Norte 30 Norte 0 -- -- 86
2018-05-03 08:00:00 8 17 Norte 21 Norte 0 -- -- 96
2018-05-03 07:00:00 7.4 17 Noroeste 21 Norte 0 -- -- 96
2018-05-03 06:00:00 7.9 15 Noroeste 21 Norte 0 -- -- 94
2018-05-03 05:00:00 7.8 14 Noroeste 15 Noroeste 0 -- -- 95
2018-05-03 04:00:00 8.2 9 Noroeste 13 Noroeste 0 -- -- 93
2018-05-03 03:00:00 8.2 9 Noroeste 13 Noroeste 0 -- -- 93
2018-05-03 02:00:00 8.7 11 Noroeste 15 Oeste 0 -- -- 92
2018-05-03 01:00:00 9.6 12 Noroeste 16 Oeste 0 -- -- 89
2018-05-03 00:00:00 10.5 12 Oeste 21 Oeste 0 -- -- 84
2018-05-02 23:00:00 11.4 15 Oeste 19 Oeste 0 -- -- 77
2018-05-02 22:00:00 11.8 14 Oeste 17 Oeste 0 -- -- 77
2018-05-02 21:00:00 13.6 11 Oeste 18 Oeste 0 -- -- 71
2018-05-02 20:00:00 15.8 11 Oeste 18 Oeste 0 -- -- 60
2018-05-02 19:00:00 16.4 12 Oeste 25 Oeste 0 -- -- 60
2018-05-02 18:00:00 16 17 Oeste 27 Oeste 0 -- -- 60
2018-05-02 17:00:00 15.8 10 Noroeste 23 Oeste 0 -- -- 56
2018-05-02 16:00:00 15.2 10 Oeste 22 Oeste 0 -- -- 59
2018-05-02 15:00:00 15.6 13 Oeste 27 Oeste 0 -- -- 56
2018-05-02 14:00:00 14.3 14 Oeste 26 Sudoeste 0 -- -- 59
2018-05-02 13:00:00 13.7 15 Noroeste 24 Oeste 0 -- -- 61
2018-05-02 12:00:00 13 15 Noroeste 25 Noroeste 0 -- -- 65
2018-05-02 11:00:00 11.4 17 Noroeste 24 Oeste 0 -- -- 69
2018-05-02 10:00:00 9.5 11 Oeste 16 Oeste 0 -- -- 82
2018-05-02 09:00:00 7.1 5 Sudoeste 12 Oeste 0 -- -- 90
2018-05-02 08:00:00 5.3 7 Sudoeste 17 Oeste 0 -- -- 91
2018-05-02 07:00:00 5.3 11 Oeste 16 Oeste 0 -- -- 89
2018-05-02 06:00:00 4.6 8 Sudoeste 18 Oeste 0 -- -- 87
2018-05-02 05:00:00 5.2 13 Oeste 16 Oeste 0 -- -- 86
2018-05-02 04:00:00 5.7 9 Oeste 16 Oeste 0 -- -- 81
2018-05-02 03:00:00 6 10 Oeste 17 Oeste 0 -- -- 80
2018-05-02 02:00:00 6.8 15 Oeste 25 Oeste 0 -- -- 77
2018-05-02 01:00:00 7.6 19 Oeste 26 Oeste 0 -- -- 76
2018-05-02 00:00:00 8.6 17 Oeste 26 Oeste 0 -- -- 73
2018-05-01 23:00:00 9.9 21 Oeste 30 Oeste 0 -- -- 67
2018-05-01 22:00:00 12 18 Oeste 27 Oeste 0 -- -- 58
2018-05-01 21:00:00 13 11 Sudoeste 19 Sudoeste 0 -- -- 59
2018-05-01 20:00:00 16.9 5 Oeste 11 Sudoeste 0 -- -- 43
2018-05-01 19:00:00 17.2 6 Norte 14 Norte 0 -- -- 40
2018-05-01 18:00:00 17 6 Oeste 19 Norte 0 -- -- 40
2018-05-01 17:00:00 15.8 8 Norte 27 Norte 0 -- -- 44
2018-05-01 16:00:00 13.1 22 Norte 32 Norte 0 -- -- 58
2018-05-01 15:00:00 15 4 Noroeste 21 Norte 0 -- -- 50
2018-05-01 14:00:00 14.7 8 Norte 20 Nordeste 0 -- -- 54
2018-05-01 13:00:00 13.9 13 Norte 31 Noroeste 0 -- -- 59
2018-05-01 12:00:00 12.7 13 Norte 26 Norte 0 -- -- 62
2018-05-01 11:00:00 11.5 17 Nordeste 25 Nordeste 0 -- -- 69
2018-05-01 10:00:00 9.8 13 Norte 18 Norte 0 -- -- 82
2018-05-01 09:00:00 7.4 10 Norte 13 Norte 0.2 -- -- 98
2018-05-01 08:00:00 6 8 Noroeste 9 Noroeste 0 -- -- 97
2018-05-01 07:00:00 6.8 4 Noroeste 5 Noroeste 0 -- -- 95
2018-05-01 06:00:00 7 5 Noroeste 6 Noroeste 0 -- -- 94
2018-05-01 05:00:00 7.6 5 Noroeste 7 Noroeste 0 -- -- 91
2018-05-01 04:00:00 8.1 4 Norte 10 Nordeste 0 -- -- 88
2018-05-01 03:00:00 7.3 10 Nordeste 12 Nordeste 0 -- -- 89
2018-05-01 02:00:00 8.5 4 Norte 5 Noroeste 0 -- -- 84
2018-05-01 01:00:00 8.9 3 Noroeste 11 Norte 0 -- -- 84
2018-05-01 00:00:00 8.8 10 Norte 15 Noroeste 0 -- -- 88
2018-04-30 23:00:00 8.8 10 Noroeste 18 Noroeste 0 -- -- 87
2018-04-30 22:00:00 9.3 12 Noroeste 23 Oeste 0 -- -- 82
2018-04-30 21:00:00 11.4 15 Oeste 25 Oeste 0 -- -- 73
2018-04-30 20:00:00 13 20 Oeste 30 Oeste 0 -- -- 60
2018-04-30 19:00:00 12.8 23 Oeste 35 Oeste 0 -- -- 63
2018-04-30 18:00:00 13.7 9 Noroeste 26 Noroeste 0 -- -- 57
2018-04-30 17:00:00 15.3 9 Oeste 23 Oeste 0 -- -- 53
2018-04-30 16:00:00 13.7 12 Noroeste 23 Oeste 0 -- -- 53
2018-04-30 15:00:00 13.5 12 Noroeste 23 Noroeste 0 -- -- 60
2018-04-30 14:00:00 12.4 13 Noroeste 25 Noroeste 0 -- -- 65
2018-04-30 13:00:00 11.2 13 Noroeste 21 Noroeste 0 -- -- 72
2018-04-30 12:00:00 10 7 Noroeste 19 Noroeste 0 -- -- 74
2018-04-30 11:00:00 8.7 9 Noroeste 18 Oeste 0 -- -- 82
2018-04-30 10:00:00 7.9 9 Oeste 15 Sudoeste 0 -- -- 88
2018-04-30 09:00:00 6.8 8 Sudoeste 11 Sudoeste 0.2 -- -- 96
2018-04-30 08:00:00 5.6 6 Sur 8 Sur 0 -- -- 96
2018-04-30 07:00:00 5.5 6 Sur 17 Sudoeste 0.2 -- -- 95
2018-04-30 06:00:00 5.2 6 Sur 9 Sur 0 -- -- 93
2018-04-30 05:00:00 5.1 7 Sudoeste 8 Sudoeste 0 -- -- 93
2018-04-30 04:00:00 4.8 7 Sudoeste 10 Sudoeste 0 -- -- 92
2018-04-30 03:00:00 4.9 8 Noroeste 15 Oeste 0 -- -- 94
2018-04-30 02:00:00 4.4 10 Sudoeste 13 Sudoeste 0 -- -- 92
2018-04-30 01:00:00 5.3 12 Oeste 17 Oeste 0 -- -- 90
2018-04-30 00:00:00 5.4 14 Oeste 15 Oeste 0 -- -- 90
2018-04-29 23:00:00 5.7 7 Noroeste 12 Oeste 0 -- -- 88
2018-04-29 22:00:00 6.2 10 Noroeste 42 Noroeste 0.2 -- -- 89
2018-04-29 21:00:00 8.8 18 Oeste 31 Oeste 0 -- -- 73
2018-04-29 20:00:00 9.8 23 Noroeste 41 Noroeste 0 -- -- 70
2018-04-29 19:00:00 9.9 28 Noroeste 40 Noroeste 0 -- -- 74
2018-04-29 18:00:00 9.7 25 Oeste 48 Noroeste 0.4 -- -- 82
2018-04-29 17:00:00 12.1 26 Noroeste 41 Oeste 0 -- -- 69
2018-04-29 16:00:00 11.7 32 Oeste 48 Oeste 0 -- -- 71
2018-04-29 15:00:00 9.2 24 Oeste 68 Noroeste 1.4 -- -- 88
2018-04-29 14:00:00 11.2 28 Oeste 44 Oeste 0.2 -- -- 69
2018-04-29 13:00:00 10.4 26 Oeste 43 Noroeste 0 -- -- 78
2018-04-29 12:00:00 10.6 29 Oeste 42 Oeste 0 -- -- 74
2018-04-29 11:00:00 9 27 Oeste 39 Oeste 0 -- -- 82
2018-04-29 10:00:00 8 23 Oeste 35 Oeste 0 -- -- 91
2018-04-29 09:00:00 6.6 21 Oeste 29 Oeste 0 -- -- 96
2018-04-29 08:00:00 5.3 21 Oeste 30 Oeste 0 -- -- 97
2018-04-29 07:00:00 5.3 18 Oeste 33 Oeste 0 -- -- 97
2018-04-29 06:00:00 5.6 24 Oeste 31 Oeste 0 -- -- 97
2018-04-29 05:00:00 5.9 16 Sudoeste 27 Oeste 0 -- -- 97
2018-04-29 04:00:00 6 17 Oeste 27 Oeste 0 -- -- 95
2018-04-29 03:00:00 6.5 17 Oeste 27 Oeste 0.4 -- -- 96
2018-04-29 02:00:00 6.9 12 Oeste 19 Oeste 0.4 -- -- 96
2018-04-29 01:00:00 7 10 Oeste 21 Oeste 0.4 -- -- 95
2018-04-29 00:00:00 7.2 12 Noroeste 20 Oeste 0.4 -- -- 93
2018-04-28 23:00:00 7.6 15 Oeste 23 Oeste 0.4 -- -- 91
2018-04-28 22:00:00 8 15 Oeste 25 Oeste 0 -- -- 87
2018-04-28 21:00:00 8.8 19 Noroeste 32 Oeste 0.8 -- -- 85
2018-04-28 20:00:00 12.4 9 Sudoeste 14 Sur 0 -- -- 63
2018-04-28 19:00:00 13.2 14 Sur 33 Sudoeste 0 -- -- 56
2018-04-28 18:00:00 14.1 15 Sudoeste 29 Sudoeste 0 -- -- 53
2018-04-28 17:00:00 14.6 20 Oeste 34 Oeste 0 -- -- 49
2018-04-28 16:00:00 14.5 21 Oeste 32 Oeste 0 -- -- 50
2018-04-28 15:00:00 13.6 16 Oeste 34 Oeste 0 -- -- 55
2018-04-28 14:00:00 13.5 15 Sudoeste 28 Oeste 0 -- -- 53
2018-04-28 13:00:00 13.1 14 Oeste 24 Oeste 0 -- -- 62
2018-04-28 12:00:00 11.9 13 Noroeste 21 Oeste 0 -- -- 64
2018-04-28 11:00:00 10.4 18 Oeste 24 Oeste 0 -- -- 73
2018-04-28 10:00:00 8.7 19 Oeste 28 Oeste 0 -- -- 81
2018-04-28 09:00:00 7.1 17 Oeste 23 Oeste 0 -- -- 89
2018-04-28 08:00:00 5.9 7 Oeste 11 Sudoeste 0 -- -- 97
2018-04-28 07:00:00 5.4 6 Sudoeste 13 Sudoeste 0 -- -- 97
2018-04-28 06:00:00 4.6 8 Sudoeste 21 Sudoeste 0 -- -- 94
2018-04-28 05:00:00 5.5 12 Sudoeste 19 Sudoeste 0 -- -- 93
2018-04-28 04:00:00 5.7 13 Oeste 22 Oeste 0 -- -- 92
2018-04-28 03:00:00 6.7 16 Sudoeste 22 Sudoeste 0 -- -- 90
2018-04-28 02:00:00 7.4 13 Oeste 20 Oeste 0 -- -- 86
2018-04-28 01:00:00 8.5 16 Noroeste 27 Oeste 0 -- -- 82
2018-04-28 00:00:00 10.3 19 Oeste 27 Oeste 0 -- -- 77